Time;durP1;ratioP1;P1;durP2;ratioP2;P2;SDS_P1;SDS_P2;PMS_P1;PMS_P2;Temp;Humidity;BMP_temperature;BMP_pressure;BME280_temperature;BME280_humidity;BME280_pressure;Samples;Min_cycle;Max_cycle;Signal;HPM_P1;HPM_P2
2021/10/03 00:00:50;;;;;;;7.47;5.10;;;17.40;99.90;;;;;;4928636;29;20226;-78
2021/10/03 00:03:22;;;;;;;6.90;4.83;;;17.30;99.90;;;;;;4935336;29;20202;-78
2021/10/03 00:05:52;;;;;;;4.40;3.53;;;17.30;99.90;;;;;;4928590;29;20794;-78
2021/10/03 00:08:19;;;;;;;4.63;3.90;;;17.30;99.90;;;;;;4929279;29;20667;-77
2021/10/03 00:10:48;;;;;;;4.10;3.33;;;17.20;99.90;;;;;;4931846;29;20270;-76
2021/10/03 00:13:15;;;;;;;4.07;3.43;;;17.00;99.90;;;;;;4924848;29;20224;-78
2021/10/03 00:15:42;;;;;;;4.63;4.13;;;16.80;99.90;;;;;;4931488;29;20284;-78
2021/10/03 00:18:11;;;;;;;5.23;3.90;;;16.60;99.90;;;;;;4929558;29;20202;-78
2021/10/03 00:20:40;;;;;;;3.83;3.40;;;16.40;99.90;;;;;;4935780;29;20234;-78
2021/10/03 00:23:07;;;;;;;3.83;3.33;;;16.30;99.90;;;;;;4932825;29;20253;-78
2021/10/03 00:25:34;;;;;;;3.70;3.40;;;16.20;99.90;;;;;;4927096;29;20633;-78
2021/10/03 00:28:03;;;;;;;7.33;6.83;;;16.10;99.90;;;;;;4933306;29;20272;-79
2021/10/03 00:30:30;;;;;;;4.40;4.00;;;16.10;99.90;;;;;;4924717;29;20247;-78
2021/10/03 00:32:57;;;;;;;8.53;7.93;;;16.00;99.90;;;;;;4934961;29;20286;-78
2021/10/03 00:35:26;;;;;;;8.70;8.10;;;16.00;99.90;;;;;;4934904;29;20622;-78
2021/10/03 00:37:52;;;;;;;6.03;5.53;;;15.90;99.90;;;;;;4923914;29;20665;-77
2021/10/03 00:40:19;;;;;;;4.90;4.50;;;15.80;99.90;;;;;;4933523;29;20223;-78
2021/10/03 00:42:47;;;;;;;5.83;5.33;;;15.70;99.90;;;;;;4935698;29;20210;-78
2021/10/03 00:45:16;;;;;;;8.67;7.97;;;15.60;99.90;;;;;;4934557;29;20691;-78
2021/10/03 00:47:44;;;;;;;8.83;8.13;;;15.50;99.90;;;;;;4935936;29;20205;-77
2021/10/03 00:50:13;;;;;;;8.70;8.00;;;15.50;99.90;;;;;;4929573;29;20821;-78
2021/10/03 00:52:42;;;;;;;8.47;7.87;;;15.40;99.90;;;;;;4939185;29;20239;-78
2021/10/03 00:55:12;;;;;;;8.70;8.03;;;15.40;99.90;;;;;;4924750;29;20255;-77
2021/10/03 00:57:40;;;;;;;8.43;7.83;;;15.40;99.90;;;;;;4935647;29;20210;-78
2021/10/03 01:00:08;;;;;;;8.83;8.13;;;15.40;99.90;;;;;;4934265;29;20220;-78
2021/10/03 01:02:34;;;;;;;8.83;8.17;;;15.40;99.90;;;;;;4928572;29;20195;-77
2021/10/03 01:05:01;;;;;;;8.40;7.80;;;15.40;99.90;;;;;;4926590;29;20264;-78
2021/10/03 01:07:28;;;;;;;8.70;8.00;;;15.40;99.90;;;;;;4929438;29;20380;-77
2021/10/03 01:09:56;;;;;;;8.63;8.00;;;15.40;99.90;;;;;;4920950;29;20640;-78
2021/10/03 01:12:23;;;;;;;8.60;8.00;;;15.40;99.90;;;;;;4938789;28;20250;-77
2021/10/03 01:14:50;;;;;;;9.03;8.20;;;15.40;99.90;;;;;;4939003;29;20217;-76
2021/10/03 01:17:17;;;;;;;5.67;5.17;;;15.40;99.90;;;;;;4930419;29;20630;-77
2021/10/03 01:19:44;;;;;;;10.27;9.47;;;15.40;99.90;;;;;;4931069;29;20214;-78
2021/10/03 01:22:12;;;;;;;9.10;8.40;;;15.40;99.90;;;;;;4916319;29;20210;-77
2021/10/03 01:24:39;;;;;;;9.70;9.00;;;15.40;99.90;;;;;;4934170;29;20211;-78
2021/10/03 01:27:07;;;;;;;8.90;8.20;;;15.40;99.90;;;;;;4935331;29;20198;-78
2021/10/03 01:29:33;;;;;;;8.57;7.97;;;15.40;99.90;;;;;;4935572;29;20200;-78
2021/10/03 01:32:00;;;;;;;8.37;7.67;;;15.40;99.90;;;;;;4929136;29;20215;-77
2021/10/03 01:34:27;;;;;;;6.47;5.87;;;15.40;99.90;;;;;;4922975;29;20281;-78
2021/10/03 01:36:56;;;;;;;5.47;4.77;;;15.40;99.90;;;;;;4926211;29;20206;-78
2021/10/03 01:39:25;;;;;;;6.27;5.40;;;15.30;99.90;;;;;;4935187;29;20200;-77
2021/10/03 01:41:52;;;;;;;9.13;8.33;;;15.30;99.90;;;;;;4930172;29;20224;-78
2021/10/03 01:44:19;;;;;;;9.53;8.77;;;15.30;99.90;;;;;;4931138;29;20200;-78
2021/10/03 01:46:46;;;;;;;10.60;9.77;;;15.30;99.90;;;;;;4923999;29;20208;-78
2021/10/03 01:49:13;;;;;;;9.83;9.03;;;15.20;99.90;;;;;;4920755;29;20203;-77
2021/10/03 01:51:39;;;;;;;6.70;6.10;;;15.20;99.90;;;;;;4939153;28;20228;-78
2021/10/03 01:54:07;;;;;;;7.50;6.80;;;15.20;99.90;;;;;;4929697;29;20225;-78
2021/10/03 01:56:36;;;;;;;9.60;8.87;;;15.10;99.90;;;;;;4924000;29;20199;-78
2021/10/03 01:59:05;;;;;;;10.40;9.50;;;15.10;99.90;;;;;;4927281;29;20670;-79
2021/10/03 02:01:33;;;;;;;10.77;9.97;;;15.00;99.90;;;;;;4926575;29;20225;-78
2021/10/03 02:04:05;;;;;;;11.00;10.10;;;15.00;99.90;;;;;;4928437;29;20193;-77
2021/10/03 02:06:31;;;;;;;10.07;9.37;;;15.00;99.90;;;;;;4924586;29;20199;-78
2021/10/03 02:08:59;;;;;;;10.00;9.20;;;15.00;99.90;;;;;;4930288;29;20551;-78
2021/10/03 02:11:28;;;;;;;10.20;9.40;;;14.90;99.90;;;;;;4922767;29;20219;-77
2021/10/03 02:13:57;;;;;;;9.13;8.43;;;14.90;99.90;;;;;;4930730;29;20560;-77
2021/10/03 02:16:23;;;;;;;9.93;9.23;;;14.90;99.90;;;;;;4931354;29;20806;-78
2021/10/03 02:18:50;;;;;;;7.33;6.57;;;14.90;99.90;;;;;;4910051;29;20206;-78
2021/10/03 02:21:18;;;;;;;10.17;9.37;;;14.90;99.90;;;;;;4925713;29;20593;-78
2021/10/03 02:23:46;;;;;;;8.70;7.90;;;14.80;99.90;;;;;;4929218;29;20889;-77
2021/10/03 02:26:13;;;;;;;7.23;6.53;;;14.80;99.90;;;;;;4928336;29;20240;-77
2021/10/03 02:28:39;;;;;;;8.30;7.60;;;14.70;99.90;;;;;;4935991;29;20664;-78
2021/10/03 02:31:11;;;;;;;10.93;10.03;;;14.70;99.90;;;;;;4931378;29;20217;-77
2021/10/03 02:33:40;;;;;;;7.00;6.30;;;14.60;99.90;;;;;;4928440;29;20705;-79
2021/10/03 02:36:08;;;;;;;6.73;5.33;;;14.60;99.90;;;;;;4932500;29;20246;-77
2021/10/03 02:38:36;;;;;;;8.73;7.93;;;14.50;99.90;;;;;;4928268;29;20665;-77
2021/10/03 02:41:04;;;;;;;9.33;8.63;;;14.50;99.90;;;;;;4936790;29;20281;-78
2021/10/03 02:43:34;;;;;;;10.67;9.77;;;14.50;99.90;;;;;;4929050;29;20266;-77
2021/10/03 02:46:02;;;;;;;5.83;5.20;;;14.40;99.90;;;;;;4940363;29;20227;-81
2021/10/03 02:48:32;;;;;;;7.80;7.00;;;14.40;99.90;;;;;;4935445;29;20199;-81
2021/10/03 02:50:59;;;;;;;5.90;5.30;;;14.40;99.90;;;;;;4913310;29;20239;-80
2021/10/03 02:53:27;;;;;;;7.67;6.70;;;14.40;99.90;;;;;;4925551;29;20219;-79
2021/10/03 02:55:55;;;;;;;8.53;7.67;;;14.40;99.90;;;;;;4928307;29;20196;-81
2021/10/03 02:58:22;;;;;;;6.23;5.23;;;14.30;99.90;;;;;;4910342;29;20297;-80
2021/10/03 03:00:52;;;;;;;6.23;5.47;;;14.30;99.90;;;;;;4922814;29;20242;-79
2021/10/03 03:03:18;;;;;;;6.03;5.13;;;14.20;99.90;;;;;;4920014;29;20255;-78
2021/10/03 03:05:48;;;;;;;5.47;4.93;;;14.20;99.90;;;;;;4914643;29;20207;-78
2021/10/03 03:08:15;;;;;;;7.07;6.37;;;14.20;99.90;;;;;;4922556;29;20202;-79
2021/10/03 03:10:42;;;;;;;6.83;6.13;;;14.20;99.90;;;;;;4925891;29;20219;-79
2021/10/03 03:13:09;;;;;;;9.73;8.93;;;14.10;99.90;;;;;;4922105;29;20208;-80
2021/10/03 03:15:36;;;;;;;11.10;10.10;;;14.10;99.90;;;;;;4930291;29;20204;-79
2021/10/03 03:18:03;;;;;;;7.23;6.53;;;14.10;99.90;;;;;;4925147;29;20270;-79
2021/10/03 03:20:29;;;;;;;10.43;9.70;;;14.00;99.90;;;;;;4930721;29;20227;-82
2021/10/03 03:22:58;;;;;;;11.10;10.20;;;14.00;99.90;;;;;;4933009;29;20204;-79
2021/10/03 03:25:24;;;;;;;8.20;7.50;;;14.00;99.90;;;;;;4921017;29;20204;-79
2021/10/03 03:27:51;;;;;;;18.10;16.70;;;14.00;99.90;;;;;;4907403;29;20209;-79
2021/10/03 03:30:18;;;;;;;11.10;10.20;;;14.00;99.90;;;;;;4930926;29;20234;-79
2021/10/03 03:32:45;;;;;;;5.47;4.83;;;14.10;99.90;;;;;;4917949;29;20669;-77
2021/10/03 03:35:12;;;;;;;4.97;3.67;;;14.20;99.90;;;;;;4915485;29;20644;-79
2021/10/03 03:37:39;;;;;;;4.67;3.50;;;14.50;99.90;;;;;;4913583;29;20276;-78
2021/10/03 03:40:10;;;;;;;4.03;3.63;;;14.70;99.90;;;;;;4925046;29;20279;-79
2021/10/03 03:42:37;;;;;;;9.43;8.73;;;14.90;99.90;;;;;;4926815;29;20203;-80
2021/10/03 03:45:05;;;;;;;5.63;4.83;;;15.10;99.90;;;;;;4927253;29;20252;-78
2021/10/03 03:47:32;;;;;;;8.20;7.40;;;15.30;99.90;;;;;;4932107;29;20204;-79
2021/10/03 03:49:59;;;;;;;5.43;4.93;;;15.50;99.90;;;;;;4927419;29;20787;-79
2021/10/03 03:52:26;;;;;;;8.40;7.60;;;15.70;99.90;;;;;;4928128;29;20204;-79
2021/10/03 03:54:53;;;;;;;4.60;3.83;;;15.90;99.90;;;;;;4927753;29;20211;-79
2021/10/03 03:57:21;;;;;;;9.33;8.50;;;16.00;99.90;;;;;;4928345;29;20752;-80
2021/10/03 03:59:48;;;;;;;7.70;7.00;;;16.20;99.90;;;;;;4930316;29;20195;-79
2021/10/03 04:02:16;;;;;;;4.20;3.80;;;16.40;99.90;;;;;;4928405;29;20209;-80
2021/10/03 04:04:43;;;;;;;5.73;3.97;;;16.40;99.90;;;;;;4933433;29;20561;-80
2021/10/03 04:07:10;;;;;;;4.90;3.90;;;16.50;99.90;;;;;;4933652;29;20199;-79
2021/10/03 04:09:37;;;;;;;4.57;3.87;;;16.50;99.90;;;;;;4925588;29;20218;-79
2021/10/03 04:12:04;;;;;;;5.00;3.93;;;16.50;99.90;;;;;;4931299;29;20289;-80
2021/10/03 04:14:32;;;;;;;5.40;3.73;;;16.50;99.90;;;;;;4930680;29;20218;-78
2021/10/03 04:16:59;;;;;;;8.37;7.70;;;16.60;99.90;;;;;;4931423;29;20663;-79
2021/10/03 04:19:26;;;;;;;5.33;4.33;;;16.60;99.90;;;;;;4927350;29;20206;-81
2021/10/03 04:21:53;;;;;;;4.73;3.83;;;16.60;99.90;;;;;;4932027;29;20650;-80
2021/10/03 04:24:20;;;;;;;6.93;6.30;;;16.70;99.90;;;;;;4924596;29;20273;-79
2021/10/03 04:26:48;;;;;;;9.17;8.47;;;16.70;99.90;;;;;;4928577;29;20737;-80
2021/10/03 04:29:14;;;;;;;10.43;8.87;;;16.80;99.90;;;;;;4921228;29;20269;-79
2021/10/03 04:31:43;;;;;;;10.03;9.17;;;16.90;99.90;;;;;;4930098;29;20221;-80
2021/10/03 04:34:09;;;;;;;8.00;6.80;;;17.00;99.90;;;;;;4927739;29;20219;-81
2021/10/03 04:36:36;;;;;;;5.37;3.80;;;17.00;99.90;;;;;;4925447;29;20252;-80
2021/10/03 04:39:04;;;;;;;6.73;6.23;;;17.00;99.90;;;;;;4928629;29;20215;-79
2021/10/03 04:41:31;;;;;;;4.43;4.03;;;17.10;99.90;;;;;;4931221;29;20247;-80
2021/10/03 04:43:58;;;;;;;3.87;3.40;;;17.00;99.90;;;;;;4917009;29;20199;-79
2021/10/03 04:46:25;;;;;;;6.87;6.33;;;17.00;99.90;;;;;;4927534;29;20210;-79
2021/10/03 04:48:53;;;;;;;4.27;3.30;;;17.00;99.90;;;;;;4930889;29;20208;-79
2021/10/03 04:51:21;;;;;;;4.23;3.40;;;17.00;99.90;;;;;;4966274;23;20702;-76
2021/10/03 04:53:48;;;;;;;4.20;3.60;;;16.90;99.90;;;;;;4965732;28;20196;-78
2021/10/03 04:56:15;;;;;;;5.47;3.27;;;16.90;99.90;;;;;;4961721;28;20259;-80
2021/10/03 04:58:41;;;;;;;3.03;2.83;;;16.90;99.90;;;;;;4963774;28;20324;-78
2021/10/03 05:01:09;;;;;;;3.63;3.20;;;16.90;99.90;;;;;;4963146;28;20232;-78
2021/10/03 05:03:36;;;;;;;4.60;3.20;;;16.80;99.90;;;;;;4961205;28;20201;-78
2021/10/03 05:06:07;;;;;;;7.53;6.93;;;16.80;99.90;;;;;;4942580;28;20639;-78
2021/10/03 05:08:34;;;;;;;8.83;8.23;;;16.80;99.90;;;;;;4955234;28;20289;-78
2021/10/03 05:11:01;;;;;;;8.87;8.17;;;16.70;99.90;;;;;;4966972;28;20217;-78
2021/10/03 05:13:28;;;;;;;6.57;5.97;;;16.70;99.90;;;;;;4970006;28;20205;-80
2021/10/03 05:15:56;;;;;;;4.53;3.70;;;16.80;99.90;;;;;;4957619;28;20229;-80
2021/10/03 05:18:22;;;;;;;4.00;3.50;;;16.90;99.90;;;;;;4958917;28;20199;-79
2021/10/03 05:20:50;;;;;;;4.33;3.47;;;17.00;99.90;;;;;;4960310;28;20276;-77
2021/10/03 05:23:18;;;;;;;5.30;3.40;;;17.00;99.90;;;;;;4963730;28;20196;-75
2021/10/03 05:25:45;;;;;;;5.40;4.43;;;17.00;99.90;;;;;;4957046;28;20204;-76
2021/10/03 05:28:12;;;;;;;4.00;3.20;;;17.10;99.90;;;;;;4964894;28;20281;-76
2021/10/03 05:30:39;;;;;;;3.90;3.50;;;16.70;99.90;;;;;;4962100;28;20233;-76
2021/10/03 05:33:06;;;;;;;6.77;6.17;;;16.40;99.90;;;;;;4962588;28;20216;-76
2021/10/03 05:35:33;;;;;;;6.70;4.10;;;16.10;99.90;;;;;;4962790;28;20712;-76
2021/10/03 05:37:59;;;;;;;6.17;3.93;;;15.90;99.90;;;;;;4959284;28;20259;-76
2021/10/03 05:40:28;;;;;;;4.50;3.90;;;15.70;99.90;;;;;;4961678;28;20597;-76
2021/10/03 05:42:54;;;;;;;8.13;7.53;;;15.60;99.90;;;;;;4967796;28;20244;-75
2021/10/03 05:45:21;;;;;;;4.43;3.83;;;15.50;99.90;;;;;;4959063;28;20670;-76
2021/10/03 05:47:48;;;;;;;6.53;5.93;;;15.40;99.90;;;;;;4964081;28;20667;-76
2021/10/03 05:50:15;;;;;;;9.43;8.73;;;15.30;99.90;;;;;;4964695;28;20199;-76
2021/10/03 05:52:42;;;;;;;9.20;8.53;;;15.20;99.90;;;;;;4966279;28;20286;-75
2021/10/03 05:55:10;;;;;;;5.63;4.33;;;15.30;99.90;;;;;;4965928;28;20227;-75
2021/10/03 05:57:38;;;;;;;4.30;3.90;;;15.30;99.90;;;;;;4957650;28;20193;-77
2021/10/03 06:00:07;;;;;;;4.37;3.77;;;15.30;99.90;;;;;;4954545;28;20656;-83
2021/10/03 06:02:34;;;;;;;4.30;3.90;;;15.30;99.90;;;;;;4964111;28;20198;-86
2021/10/03 06:05:00;;;;;;;4.47;3.87;;;15.30;99.90;;;;;;4960470;28;20208;-86
2021/10/03 06:07:29;;;;;;;5.50;4.10;;;15.30;99.90;;;;;;4960968;28;20211;-84
2021/10/03 06:09:56;;;;;;;4.73;3.90;;;15.40;99.90;;;;;;4972696;28;20207;-79
2021/10/03 06:12:23;;;;;;;3.97;3.40;;;15.60;99.90;;;;;;4962005;28;20222;-78
2021/10/03 06:14:51;;;;;;;5.40;3.47;;;15.90;99.90;;;;;;4966712;28;20707;-77
2021/10/03 06:17:18;;;;;;;3.83;3.37;;;16.30;99.90;;;;;;4961762;28;20203;-77
2021/10/03 06:19:44;;;;;;;4.47;4.07;;;16.60;99.90;;;;;;4959076;28;21338;-77
2021/10/03 06:22:13;;;;;;;9.47;8.77;;;16.90;99.90;;;;;;4963666;28;20291;-78
2021/10/03 06:24:40;;;;;;;8.67;7.97;;;17.30;99.90;;;;;;4960468;28;20652;-77
2021/10/03 06:27:07;;;;;;;8.10;7.50;;;17.60;99.90;;;;;;4953201;28;20213;-76
2021/10/03 06:29:33;;;;;;;5.80;5.30;;;17.90;99.90;;;;;;4952095;28;20671;-76
2021/10/03 06:32:02;;;;;;;9.20;8.40;;;18.10;99.90;;;;;;4952060;28;20232;-76
2021/10/03 06:34:28;;;;;;;8.50;7.80;;;18.30;99.90;;;;;;4953688;28;20248;-76
2021/10/03 06:36:55;;;;;;;3.70;3.40;;;18.50;99.90;;;;;;4967001;28;20303;-77
2021/10/03 06:39:22;;;;;;;4.83;4.33;;;18.70;99.90;;;;;;4960681;28;20663;-78
2021/10/03 06:41:49;;;;;;;7.70;7.20;;;18.80;99.90;;;;;;4955491;28;20219;-76
2021/10/03 06:44:16;;;;;;;8.53;7.80;;;18.90;99.90;;;;;;4953393;28;20203;-77
2021/10/03 06:46:43;;;;;;;8.83;8.20;;;19.10;99.90;;;;;;4952235;28;20200;-76
2021/10/03 06:49:11;;;;;;;3.83;3.37;;;19.20;99.90;;;;;;4953565;28;20199;-76
2021/10/03 06:51:42;;;;;;;3.40;3.10;;;19.20;99.90;;;;;;4951588;28;20677;-76
2021/10/03 06:54:09;;;;;;;8.43;7.80;;;19.20;99.90;;;;;;4951667;28;20693;-76
2021/10/03 06:56:36;;;;;;;5.93;4.33;;;19.20;99.90;;;;;;4954631;28;20642;-76
2021/10/03 06:59:03;;;;;;;4.43;4.03;;;19.20;99.90;;;;;;4953694;28;20274;-79
2021/10/03 07:01:30;;;;;;;8.80;8.00;;;19.10;99.90;;;;;;4957984;28;20219;-78
2021/10/03 07:03:56;;;;;;;8.40;7.80;;;18.90;99.90;;;;;;4964991;28;20207;-77
2021/10/03 07:06:25;;;;;;;7.87;7.30;;;19.00;99.90;;;;;;4956636;28;20238;-77
2021/10/03 07:08:51;;;;;;;6.63;5.93;;;19.00;99.90;;;;;;4948671;28;20207;-78
2021/10/03 07:11:18;;;;;;;8.23;7.63;;;19.10;99.90;;;;;;4961467;28;20271;-77
2021/10/03 07:13:45;;;;;;;9.00;8.30;;;19.10;99.90;;;;;;4963964;28;20677;-78
2021/10/03 07:16:12;;;;;;;7.50;6.90;;;19.30;99.90;;;;;;4961699;28;20714;-78
2021/10/03 07:18:39;;;;;;;8.73;8.03;;;19.20;99.90;;;;;;4957560;28;20208;-78
2021/10/03 07:21:05;;;;;;;8.73;6.70;;;19.10;99.90;;;;;;4946851;28;20642;-78
2021/10/03 07:23:34;;;;;;;6.83;6.20;;;18.90;99.90;;;;;;4959989;28;20202;-78
2021/10/03 07:26:00;;;;;;;4.93;4.03;;;18.70;99.90;;;;;;4957103;28;20338;-77
2021/10/03 07:28:27;;;;;;;5.33;4.17;;;18.40;99.90;;;;;;4964863;28;20237;-79
2021/10/03 07:30:54;;;;;;;9.50;6.73;;;18.30;99.90;;;;;;4962900;28;20230;-81
2021/10/03 07:33:22;;;;;;;7.00;6.50;;;18.20;99.90;;;;;;4963541;28;20206;-78
2021/10/03 07:35:49;;;;;;;8.33;7.73;;;18.10;99.90;;;;;;4964163;28;20695;-78
2021/10/03 07:38:16;;;;;;;7.10;6.50;;;18.10;99.90;;;;;;4966767;28;20261;-78
2021/10/03 07:40:45;;;;;;;5.10;4.10;;;18.20;99.90;;;;;;4960760;28;20234;-78
2021/10/03 07:43:13;;;;;;;4.23;3.40;;;18.30;99.90;;;;;;4956135;28;20206;-82
2021/10/03 07:45:39;;;;;;;3.57;3.27;;;18.40;99.90;;;;;;4961831;28;20257;-79
2021/10/03 07:48:06;;;;;;;4.23;3.80;;;18.50;99.90;;;;;;4968818;28;20269;-79
2021/10/03 07:50:33;;;;;;;5.20;4.80;;;18.70;99.90;;;;;;4967219;28;20234;-78
2021/10/03 07:53:00;;;;;;;4.07;3.47;;;18.70;99.90;;;;;;4973510;28;20203;-78
2021/10/03 07:55:29;;;;;;;4.27;3.87;;;18.70;99.90;;;;;;4963925;28;20215;-77
2021/10/03 07:58:02;;;;;;;3.77;3.30;;;18.70;99.90;;;;;;4945803;28;20203;-77
2021/10/03 08:00:30;;;;;;;3.40;3.10;;;18.70;99.90;;;;;;4956747;28;20298;-78
2021/10/03 08:02:56;;;;;;;2.90;2.70;;;18.70;99.90;;;;;;4953588;28;20664;-79
2021/10/03 08:05:23;;;;;;;4.57;2.97;;;18.80;99.90;;;;;;4962077;28;20199;-77
2021/10/03 08:07:50;;;;;;;2.70;2.50;;;18.90;99.90;;;;;;4948422;28;20194;-78
2021/10/03 08:10:17;;;;;;;3.10;2.80;;;18.90;99.90;;;;;;4953991;28;20199;-79
2021/10/03 08:12:44;;;;;;;4.90;2.50;;;19.10;99.90;;;;;;4954440;28;20689;-78
2021/10/03 08:15:12;;;;;;;3.00;2.70;;;19.20;99.90;;;;;;4959334;28;20634;-79
2021/10/03 08:17:39;;;;;;;2.93;2.60;;;19.30;99.90;;;;;;4962456;28;20272;-78
2021/10/03 08:20:07;;;;;;;2.17;2.07;;;19.40;99.90;;;;;;4957895;28;20209;-78
2021/10/03 08:22:34;;;;;;;6.70;6.30;;;19.50;99.90;;;;;;4954150;28;20197;-78
2021/10/03 08:25:05;;;;;;;7.60;7.00;;;19.60;99.90;;;;;;4956669;28;20200;-78
2021/10/03 08:27:32;;;;;;;7.67;7.07;;;19.80;99.90;;;;;;4958963;28;20200;-78
2021/10/03 08:29:59;;;;;;;3.50;3.20;;;19.90;99.90;;;;;;4959927;28;20201;-79
2021/10/03 08:32:27;;;;;;;4.47;2.80;;;20.10;99.90;;;;;;4954215;28;20221;-80
2021/10/03 08:34:55;;;;;;;2.90;2.60;;;20.30;99.90;;;;;;4952172;28;20262;-78
2021/10/03 08:37:22;;;;;;;3.13;2.83;;;20.50;99.90;;;;;;4953708;28;20237;-79
2021/10/03 08:39:49;;;;;;;5.07;3.77;;;20.70;99.90;;;;;;4954415;28;20194;-78
2021/10/03 08:42:16;;;;;;;7.60;7.00;;;20.80;99.90;;;;;;4954787;28;20222;-78
2021/10/03 08:44:43;;;;;;;7.47;6.87;;;20.80;99.90;;;;;;4954811;28;20553;-78
2021/10/03 08:47:10;;;;;;;7.57;6.97;;;20.90;99.90;;;;;;4954348;28;20250;-79
2021/10/03 08:49:39;;;;;;;3.67;2.70;;;21.00;99.90;;;;;;4944741;28;20195;-78
2021/10/03 08:52:06;;;;;;;6.37;5.97;;;21.10;99.90;;;;;;4955709;28;20218;-78
2021/10/03 08:54:35;;;;;;;6.30;4.87;;;21.10;99.90;;;;;;4961415;28;20261;-78
2021/10/03 08:57:02;;;;;;;7.33;6.67;;;21.20;99.90;;;;;;4961401;28;20641;-78
2021/10/03 08:59:29;;;;;;;7.00;6.50;;;21.20;99.90;;;;;;4953939;28;20202;-78
2021/10/03 09:01:58;;;;;;;7.97;7.47;;;21.20;99.90;;;;;;4956393;28;20637;-78
2021/10/03 09:04:26;;;;;;;3.37;3.10;;;21.20;99.90;;;;;;4961936;28;20257;-79
2021/10/03 09:07:03;;;;;;;2.93;2.70;;;21.10;99.90;;;;;;4962948;28;20245;-78
2021/10/03 09:09:55;;;;;;;3.33;3.00;;;21.00;99.90;;;;;;4961146;28;20665;-78
2021/10/03 09:12:29;;;;;;;3.60;3.30;;;20.80;99.90;;;;;;4960895;28;20249;-78
2021/10/03 09:14:57;;;;;;;3.17;2.87;;;20.70;99.90;;;;;;4959565;28;20655;-78
2021/10/03 09:17:24;;;;;;;3.70;3.17;;;20.70;99.90;;;;;;4963944;28;20655;-77
2021/10/03 09:20:12;;;;;;;3.40;3.10;;;20.80;99.90;;;;;;4962318;28;20207;-78
2021/10/03 09:23:02;;;;;;;3.33;3.00;;;20.80;99.90;;;;;;4967019;28;20203;-77
2021/10/03 09:25:41;;;;;;;3.20;2.80;;;20.80;99.90;;;;;;4964024;28;20225;-79
2021/10/03 09:28:10;;;;;;;4.30;3.90;;;20.80;99.90;;;;;;4942615;29;20203;-79
2021/10/03 09:30:55;;;;;;;3.63;3.00;;;20.80;99.90;;;;;;4966386;28;20715;-78
2021/10/03 09:33:23;;;;;;;2.83;2.53;;;20.90;99.90;;;;;;4963201;28;20193;-79
2021/10/03 09:35:58;;;;;;;3.47;2.47;;;21.00;99.90;;;;;;4960365;28;20589;-78
2021/10/03 09:38:27;;;;;;;2.70;2.50;;;21.20;99.90;;;;;;4961642;28;20625;-78
2021/10/03 09:41:02;;;;;;;3.07;2.80;;;21.30;99.90;;;;;;4952566;28;20227;-79
2021/10/03 09:43:40;;;;;;;2.70;2.50;;;21.50;99.90;;;;;;4952886;28;20194;-79
2021/10/03 09:46:08;;;;;;;2.70;2.50;;;21.50;99.90;;;;;;4956365;28;20249;-79
2021/10/03 09:48:47;;;;;;;2.90;2.70;;;21.60;99.90;;;;;;4958724;28;20237;-79
2021/10/03 09:51:14;;;;;;;6.70;6.20;;;21.70;99.90;;;;;;4956940;28;20461;-79
2021/10/03 09:53:44;;;;;;;6.90;6.40;;;21.70;99.90;;;;;;4960420;28;20664;-79
2021/10/03 09:56:12;;;;;;;6.90;6.40;;;21.70;99.90;;;;;;4955210;28;20217;-78
2021/10/03 09:58:39;;;;;;;6.70;6.27;;;21.80;99.90;;;;;;4962957;28;20207;-78
2021/10/03 10:01:07;;;;;;;2.80;2.60;;;21.80;99.90;;;;;;4957694;28;20222;-79
2021/10/03 10:03:36;;;;;;;2.30;2.10;;;21.90;99.90;;;;;;4952704;28;20255;-77
2021/10/03 10:06:03;;;;;;;2.63;2.43;;;21.90;99.90;;;;;;4948932;28;20191;-79
2021/10/03 10:08:32;;;;;;;2.90;2.53;;;21.90;99.90;;;;;;4955419;28;20202;-79
2021/10/03 10:11:06;;;;;;;3.83;3.53;;;22.00;99.90;;;;;;4951270;28;20219;-79
2021/10/03 10:13:35;;;;;;;3.00;2.70;;;22.10;99.90;;;;;;4938793;28;20199;-78
2021/10/03 10:16:33;;;;;;;2.40;2.20;;;22.30;99.90;;;;;;4941972;28;20213;-79
2021/10/03 10:19:33;;;;;;;5.73;5.23;;;22.60;99.90;;;;;;4926696;28;20239;-79
2021/10/03 10:22:41;;;;;;;6.93;6.50;;;22.90;99.90;;;;;;4940949;28;20227;-79
2021/10/03 10:25:19;;;;;;;2.67;2.47;;;23.10;99.90;;;;;;4939726;28;20224;-78
2021/10/03 10:27:59;;;;;;;6.80;6.40;;;23.30;99.90;;;;;;4937633;28;20281;-80
2021/10/03 10:30:26;;;;;;;2.60;2.40;;;23.30;99.90;;;;;;4968368;28;20207;-83
2021/10/03 10:33:05;;;;;;;7.00;6.60;;;23.30;99.90;;;;;;4964559;28;20196;-79
2021/10/03 10:35:33;;;;;;;3.20;2.90;;;23.40;99.90;;;;;;4962883;28;20284;-80
2021/10/03 10:38:18;;;;;;;2.60;2.40;;;23.30;99.90;;;;;;4956182;28;20226;-80
2021/10/03 10:40:45;;;;;;;2.43;2.27;;;23.40;99.90;;;;;;4962681;28;20229;-80
2021/10/03 10:43:47;;;;;;;6.67;6.20;;;23.50;99.90;;;;;;4959642;28;20301;-82
2021/10/03 10:46:54;;;;;;;3.87;3.57;;;23.50;99.90;;;;;;4969801;28;20198;-81
2021/10/03 10:49:33;;;;;;;2.73;2.53;;;23.70;99.90;;;;;;4967093;28;20214;-82
2021/10/03 10:52:32;;;;;;;5.80;5.40;;;23.70;99.90;;;;;;4979350;23;20309;-77
2021/10/03 10:55:25;;;;;;;5.50;5.20;;;23.70;99.90;;;;;;4949165;29;20199;-79
2021/10/03 10:58:12;;;;;;;4.03;3.73;;;23.60;99.90;;;;;;4925717;29;20219;-75
2021/10/03 11:01:07;;;;;;;3.70;3.17;;;23.40;99.90;;;;;;4942493;29;20593;-78
2021/10/03 11:03:55;;;;;;;3.20;2.90;;;23.40;99.90;;;;;;4907098;29;20212;-79
2021/10/03 11:06:59;;;;;;;2.90;2.70;;;23.30;99.90;;;;;;4897941;29;20306;-79
2021/10/03 11:09:26;;;;;;;6.30;5.90;;;23.20;99.90;;;;;;4915279;29;20212;-79
2021/10/03 11:12:07;;;;;;;2.70;2.50;;;23.10;99.90;;;;;;4901266;29;20247;-79
2021/10/03 11:14:36;;;;;;;5.27;4.87;;;23.10;99.90;;;;;;4919687;29;20204;-79
2021/10/03 11:17:07;;;;;;;2.47;2.27;;;23.00;99.90;;;;;;4906992;29;20219;-78
2021/10/03 11:19:41;;;;;;;6.23;5.73;;;22.80;99.90;;;;;;4918801;29;20195;-79
2021/10/03 11:22:10;;;;;;;7.63;7.03;;;22.70;99.90;;;;;;4901766;29;20220;-79
2021/10/03 11:24:39;;;;;;;7.47;6.87;;;22.50;99.90;;;;;;4927091;29;20270;-78
2021/10/03 11:27:08;;;;;;;9.00;8.30;;;22.30;99.90;;;;;;4912714;29;20605;-79
2021/10/03 11:29:37;;;;;;;8.37;7.77;;;22.20;99.90;;;;;;4904203;29;20622;-79
2021/10/03 11:32:07;;;;;;;6.53;6.13;;;22.10;99.90;;;;;;4900821;29;20279;-79
2021/10/03 11:34:36;;;;;;;8.23;7.63;;;22.00;99.90;;;;;;4902457;29;20200;-79
2021/10/03 11:37:05;;;;;;;4.40;4.00;;;22.00;99.90;;;;;;4927297;29;20648;-79
2021/10/03 11:39:43;;;;;;;6.67;6.17;;;22.10;99.90;;;;;;4925188;29;20207;-79
2021/10/03 11:42:12;;;;;;;8.30;7.70;;;22.30;99.90;;;;;;4909769;29;20514;-78
2021/10/03 11:44:41;;;;;;;8.33;7.73;;;22.40;99.90;;;;;;4917424;29;20222;-79
2021/10/03 11:47:11;;;;;;;3.23;2.93;;;22.60;99.90;;;;;;4900353;29;20669;-79
2021/10/03 11:49:39;;;;;;;3.10;2.80;;;22.70;99.90;;;;;;4899956;29;20212;-79
2021/10/03 11:52:08;;;;;;;6.33;5.93;;;22.80;99.90;;;;;;4900339;29;20232;-79
2021/10/03 11:54:37;;;;;;;7.20;6.70;;;22.80;99.90;;;;;;4899924;29;20204;-79
2021/10/03 11:57:28;;;;;;;5.67;5.17;;;23.00;99.90;;;;;;4906363;29;20215;-79
2021/10/03 12:00:16;;;;;;;5.23;4.47;;;23.00;99.90;;;;;;4909899;29;20291;-79
2021/10/03 12:02:46;;;;;;;4.23;3.27;;;23.00;99.90;;;;;;4914865;29;20231;-79
2021/10/03 12:05:17;;;;;;;4.57;3.73;;;23.00;99.90;;;;;;4916834;29;20255;-78
2021/10/03 12:07:44;;;;;;;9.03;8.33;;;22.90;99.90;;;;;;4899727;29;20207;-77
2021/10/03 12:10:13;;;;;;;3.97;3.37;;;22.80;99.90;;;;;;4927742;29;20207;-79
2021/10/03 12:12:52;;;;;;;4.93;3.70;;;22.70;99.90;;;;;;4922580;29;20228;-79
2021/10/03 12:15:37;;;;;;;3.70;3.30;;;22.60;99.90;;;;;;4907932;29;20417;-79
2021/10/03 12:18:05;;;;;;;5.43;4.07;;;22.70;99.90;;;;;;4893537;29;20215;-79
2021/10/03 12:20:53;;;;;;;8.03;7.40;;;22.80;99.90;;;;;;4902666;29;20279;-78
2021/10/03 12:23:21;;;;;;;7.23;6.73;;;23.00;99.90;;;;;;4917325;29;20195;-78
2021/10/03 12:25:50;;;;;;;6.03;3.33;;;23.20;99.90;;;;;;4923160;29;20195;-78
2021/10/03 12:28:18;;;;;;;3.97;3.57;;;23.20;99.90;;;;;;4921647;29;20191;-78
2021/10/03 12:30:49;;;;;;;5.10;3.63;;;23.30;99.90;;;;;;4907634;29;20207;-79
2021/10/03 12:33:17;;;;;;;6.93;5.07;;;23.30;99.90;;;;;;4899465;29;20211;-78
2021/10/03 12:36:00;;;;;;;6.43;5.40;;;23.30;99.90;;;;;;4903154;29;20619;-78
2021/10/03 12:38:27;;;;;;;8.00;7.30;;;23.20;99.90;;;;;;4899894;29;20310;-78
2021/10/03 12:40:55;;;;;;;4.77;4.13;;;23.10;99.90;;;;;;4912385;29;20253;-79
2021/10/03 12:43:22;;;;;;;9.07;8.37;;;23.10;99.90;;;;;;4927225;29;20251;-78
2021/10/03 12:45:49;;;;;;;9.17;8.47;;;23.20;99.90;;;;;;4907864;29;20200;-78
2021/10/03 12:48:17;;;;;;;9.17;8.47;;;23.10;99.90;;;;;;4916487;29;20267;-78
2021/10/03 12:50:44;;;;;;;9.13;8.43;;;23.10;99.90;;;;;;4905618;29;20581;-78
2021/10/03 12:53:11;;;;;;;9.00;8.30;;;23.10;99.90;;;;;;4900763;29;20708;-79
2021/10/03 12:55:38;;;;;;;9.07;8.37;;;23.20;99.90;;;;;;4910260;29;20266;-78
2021/10/03 12:58:05;;;;;;;8.83;8.03;;;23.30;99.90;;;;;;4929262;29;20713;-79